Terminal Aerodrome Forecast
Issued by NWS

Home | Current Version | Previous Version | Text Only | Print | Product List | Glossary On
Versions: 1 2 3 4 5 6 7 8 9 10 11 12
566
FTAK31 PAJN 170538
TAFAWG
TAF
PAWG 170538Z 1706/1806 VRB03KT P6SM VCSH OVC060
     FM170800 22005KT P6SM -SHRA OVC040
     FM171200 VRB03KT 4SM BCFG VCSH SCT007 OVC040
     FM171600 11005KT P6SM -SHRA FEW007 OVC050
     FM180500 13012KT P6SM VCSH OVC080 WS020/13030KT
      AMD LTD TO CLD VIS AND WIND 1706/1715=

USA.gov is the U.S. government's official web portal to all federal, state and local government web resources and services.